Time;durP1;ratioP1;P1;durP2;ratioP2;P2;SDS_P1;SDS_P2;PMS_P1;PMS_P2;Temp;Humidity;BMP_temperature;BMP_pressure;BME280_temperature;BME280_humidity;BME280_pressure;Samples;Min_cycle;Max_cycle;Signal;HPM_P1;HPM_P2
2023/07/06 00:01:14;;;;;;;5.88;4.13;;;22.00;99.90;;;;;;4983517;28;20285;-71
2023/07/06 00:04:04;;;;;;;6.97;4.60;;;21.80;99.90;;;;;;4966974;28;20222;-71
2023/07/06 00:06:55;;;;;;;5.38;4.32;;;21.70;99.90;;;;;;4968848;28;20235;-71
2023/07/06 00:09:45;;;;;;;8.68;4.90;;;21.80;99.90;;;;;;4983461;28;20220;-71
2023/07/06 00:12:36;;;;;;;7.50;5.38;;;21.70;99.90;;;;;;4972006;28;20242;-71
2023/07/06 00:15:27;;;;;;;6.80;5.22;;;21.80;99.90;;;;;;4972511;28;20318;-72
2023/07/06 00:18:17;;;;;;;7.53;5.60;;;21.90;99.90;;;;;;4979789;28;20238;-71
2023/07/06 00:21:06;;;;;;;7.38;5.32;;;21.90;99.90;;;;;;4983323;28;20274;-72
2023/07/06 00:23:55;;;;;;;8.32;6.10;;;21.90;99.90;;;;;;4987545;28;20659;-71
2023/07/06 00:26:44;;;;;;;7.50;5.72;;;21.80;99.90;;;;;;4974519;28;20241;-71
2023/07/06 00:29:45;;;;;;;6.63;5.45;;;21.70;99.90;;;;;;4984113;28;20792;-72
2023/07/06 00:32:34;;;;;;;7.18;5.25;;;21.50;99.90;;;;;;4977744;28;20245;-70
2023/07/06 00:35:27;;;;;;;6.97;5.38;;;21.60;99.90;;;;;;4968484;28;20636;-70
2023/07/06 00:38:18;;;;;;;8.63;5.60;;;21.70;99.90;;;;;;4979491;28;20238;-70
2023/07/06 00:41:08;;;;;;;8.05;5.38;;;21.80;99.90;;;;;;4972569;28;20243;-73
2023/07/06 00:43:58;;;;;;;9.98;5.35;;;21.90;99.90;;;;;;4978508;28;20223;-71
2023/07/06 00:46:49;;;;;;;6.85;5.60;;;21.80;99.90;;;;;;4973030;28;20235;-72
2023/07/06 00:49:39;;;;;;;9.25;5.32;;;21.90;99.90;;;;;;4969668;28;20227;-73
2023/07/06 00:52:29;;;;;;;8.98;5.18;;;21.90;99.90;;;;;;4977561;28;20246;-72
2023/07/06 00:55:20;;;;;;;6.82;4.70;;;21.80;99.90;;;;;;4993964;28;20745;-73
2023/07/06 00:58:16;;;;;;;5.22;4.35;;;21.80;99.90;;;;;;4972333;28;20219;-72
2023/07/06 01:01:08;;;;;;;10.25;4.78;;;21.90;99.90;;;;;;4989923;28;20219;-73
2023/07/06 01:03:59;;;;;;;6.38;4.40;;;21.80;99.90;;;;;;4987478;28;20675;-72
2023/07/06 01:06:51;;;;;;;7.65;4.50;;;21.90;99.90;;;;;;4983253;28;20231;-72
2023/07/06 01:09:41;;;;;;;4.95;4.40;;;21.80;99.90;;;;;;4976163;28;20353;-73
2023/07/06 01:12:29;;;;;;;7.15;4.40;;;21.80;99.90;;;;;;4968067;28;20731;-73
2023/07/06 01:15:19;;;;;;;7.75;4.75;;;21.80;99.90;;;;;;4971547;28;20232;-72
2023/07/06 01:18:15;;;;;;;9.93;4.57;;;21.70;99.90;;;;;;4994210;28;20231;-72
2023/07/06 01:21:14;;;;;;;9.02;4.70;;;21.80;99.90;;;;;;4979751;28;20223;-72
2023/07/06 01:24:26;;;;;;;5.85;4.65;;;21.90;99.90;;;;;;4981076;28;20231;-72
2023/07/06 01:27:32;;;;;;;7.57;4.32;;;22.00;99.90;;;;;;4976863;28;20305;-72
2023/07/06 01:30:45;;;;;;;5.80;4.40;;;21.80;99.90;;;;;;4990966;28;20325;-72
2023/07/06 01:33:42;;;;;;;6.60;4.63;;;21.80;99.90;;;;;;4980668;28;20227;-73
2023/07/06 01:36:39;;;;;;;5.93;4.80;;;21.60;99.90;;;;;;4979231;28;20222;-73
2023/07/06 01:39:28;;;;;;;6.28;4.25;;;21.50;99.90;;;;;;4981344;28;20326;-73
2023/07/06 01:42:26;;;;;;;7.63;4.72;;;21.50;99.90;;;;;;4973265;28;20714;-73
2023/07/06 01:45:18;;;;;;;6.93;4.80;;;21.40;99.90;;;;;;4984571;28;21741;-73
2023/07/06 01:48:10;;;;;;;5.78;4.78;;;21.30;99.90;;;;;;4980897;28;20231;-73
2023/07/06 01:51:13;;;;;;;6.53;4.78;;;21.40;99.90;;;;;;4977855;28;20302;-73
2023/07/06 01:54:07;;;;;;;9.05;4.50;;;21.50;99.90;;;;;;4989533;28;20231;-73
2023/07/06 01:57:04;;;;;;;5.80;4.55;;;21.50;99.90;;;;;;4968069;28;20223;-73
2023/07/06 01:59:57;;;;;;;7.22;4.97;;;21.60;99.90;;;;;;4994188;28;20230;-72
2023/07/06 02:02:51;;;;;;;8.40;4.82;;;21.60;99.90;;;;;;4970964;28;20628;-72
2023/07/06 02:05:42;;;;;;;6.70;4.55;;;21.50;99.90;;;;;;4972867;28;20733;-75
2023/07/06 02:08:33;;;;;;;7.00;4.50;;;21.50;99.90;;;;;;4987029;28;20227;-72
2023/07/06 02:11:24;;;;;;;6.43;4.47;;;21.40;99.90;;;;;;4981044;28;20227;-71
2023/07/06 02:14:14;;;;;;;5.78;4.88;;;21.30;99.90;;;;;;4979858;28;20219;-72
2023/07/06 02:17:03;;;;;;;5.45;4.07;;;21.30;99.90;;;;;;4976460;28;20706;-70
2023/07/06 02:19:52;;;;;;;6.13;3.97;;;21.20;99.90;;;;;;4979366;28;20220;-71
2023/07/06 02:22:41;;;;;;;7.93;4.20;;;21.20;99.90;;;;;;4978033;28;20219;-71
2023/07/06 02:25:32;;;;;;;5.40;3.97;;;21.20;99.90;;;;;;4971290;28;20222;-71
2023/07/06 02:28:22;;;;;;;7.07;4.72;;;21.10;99.90;;;;;;4975406;28;20354;-73
2023/07/06 02:31:11;;;;;;;6.88;4.28;;;21.10;99.90;;;;;;4974075;28;20226;-73
2023/07/06 02:34:02;;;;;;;6.75;4.30;;;21.10;99.90;;;;;;4980434;28;20223;-70
2023/07/06 02:36:52;;;;;;;6.07;4.10;;;21.00;99.90;;;;;;4982950;28;20235;-71
2023/07/06 02:39:41;;;;;;;5.22;4.20;;;21.00;99.90;;;;;;4972260;28;20227;-70
2023/07/06 02:42:34;;;;;;;5.05;4.35;;;20.90;99.90;;;;;;4980416;28;20789;-71
2023/07/06 02:45:24;;;;;;;5.85;4.15;;;21.10;99.90;;;;;;4980489;28;20258;-72
2023/07/06 02:48:17;;;;;;;8.23;4.32;;;20.90;99.90;;;;;;4971706;28;20703;-74
2023/07/06 02:51:06;;;;;;;6.22;4.32;;;20.90;99.90;;;;;;4991511;28;20215;-74
2023/07/06 02:53:57;;;;;;;6.90;4.28;;;20.80;99.90;;;;;;4992862;28;20231;-73
2023/07/06 02:56:47;;;;;;;5.60;4.40;;;20.90;99.90;;;;;;4972388;28;20382;-73
2023/07/06 02:59:38;;;;;;;6.50;4.32;;;20.80;99.90;;;;;;4975851;28;20265;-73
2023/07/06 03:02:27;;;;;;;6.55;4.75;;;20.80;99.90;;;;;;4977654;28;20725;-72
2023/07/06 03:05:20;;;;;;;4.82;4.22;;;20.80;99.90;;;;;;4977962;28;20238;-72
2023/07/06 03:08:10;;;;;;;5.60;3.95;;;20.90;99.90;;;;;;4969142;28;20451;-74
2023/07/06 03:10:59;;;;;;;6.93;3.88;;;21.00;99.90;;;;;;4981485;28;20214;-72
2023/07/06 03:13:48;;;;;;;5.95;3.90;;;21.00;99.90;;;;;;4969839;28;20582;-73
2023/07/06 03:16:40;;;;;;;5.60;4.45;;;21.00;99.90;;;;;;4972765;28;20219;-72
2023/07/06 03:19:29;;;;;;;8.00;4.40;;;21.10;99.90;;;;;;4971939;28;20219;-72
2023/07/06 03:22:18;;;;;;;4.78;4.25;;;21.10;99.90;;;;;;4978447;28;20309;-72
2023/07/06 03:25:09;;;;;;;5.88;4.13;;;21.00;99.90;;;;;;4980746;28;20882;-72
2023/07/06 03:27:58;;;;;;;5.85;4.18;;;21.10;99.90;;;;;;4975602;28;20223;-73
2023/07/06 03:30:54;;;;;;;4.82;3.95;;;21.10;99.90;;;;;;4976773;28;20226;-73
2023/07/06 03:33:45;;;;;;;6.20;4.15;;;21.10;99.90;;;;;;4973292;28;20223;-73
2023/07/06 03:36:35;;;;;;;7.55;4.40;;;21.00;99.90;;;;;;4979350;28;20746;-73
2023/07/06 03:39:24;;;;;;;6.47;4.72;;;21.20;99.90;;;;;;4989653;28;20237;-73
2023/07/06 03:42:12;;;;;;;7.15;4.70;;;21.20;99.90;;;;;;4973962;28;20590;-74
2023/07/06 03:45:05;;;;;;;8.68;4.45;;;21.20;99.90;;;;;;4979361;28;20284;-73
2023/07/06 03:47:53;;;;;;;8.38;4.70;;;21.20;99.90;;;;;;4974572;28;20334;-73
2023/07/06 03:50:44;;;;;;;6.70;4.40;;;21.20;99.90;;;;;;4986158;28;20760;-73
2023/07/06 03:53:35;;;;;;;5.45;4.50;;;21.10;99.90;;;;;;4988057;28;20230;-74
2023/07/06 03:56:27;;;;;;;6.28;4.43;;;21.10;99.90;;;;;;4986174;28;20330;-73
2023/07/06 03:59:16;;;;;;;6.22;4.03;;;21.10;99.90;;;;;;4973989;28;20263;-72
2023/07/06 04:02:05;;;;;;;8.63;4.63;;;21.10;99.90;;;;;;4987573;28;20580;-71
2023/07/06 04:04:55;;;;;;;6.03;4.65;;;21.00;99.90;;;;;;4976762;28;20219;-73
2023/07/06 04:07:52;;;;;;;7.13;4.82;;;20.90;99.90;;;;;;4986651;28;20370;-73
2023/07/06 04:10:42;;;;;;;7.53;4.43;;;20.90;99.90;;;;;;4972214;28;20239;-72
2023/07/06 04:13:31;;;;;;;5.45;4.15;;;20.80;99.90;;;;;;4993632;28;20536;-72
2023/07/06 04:16:20;;;;;;;8.82;4.95;;;20.90;99.90;;;;;;4978924;28;20835;-71
2023/07/06 04:19:10;;;;;;;6.03;4.57;;;20.90;99.90;;;;;;4981367;28;20230;-71
2023/07/06 04:21:59;;;;;;;6.35;5.20;;;20.80;99.90;;;;;;4978520;28;20254;-72
2023/07/06 04:24:51;;;;;;;7.18;5.05;;;20.90;99.90;;;;;;4981525;28;20738;-73
2023/07/06 04:27:40;;;;;;;9.77;5.22;;;20.90;99.90;;;;;;4973281;28;20716;-71
2023/07/06 04:30:33;;;;;;;6.95;5.43;;;20.90;99.90;;;;;;4984101;28;20234;-71
2023/07/06 04:33:22;;;;;;;7.20;4.85;;;20.70;99.90;;;;;;4984539;28;20686;-72
2023/07/06 04:36:10;;;;;;;8.35;5.07;;;20.90;99.90;;;;;;4982159;28;20218;-74
2023/07/06 04:39:00;;;;;;;7.88;5.28;;;21.00;99.90;;;;;;4984863;28;20318;-71
2023/07/06 04:41:51;;;;;;;8.63;5.10;;;21.10;99.90;;;;;;4986224;28;20227;-72
2023/07/06 04:44:40;;;;;;;8.98;5.25;;;21.10;99.90;;;;;;4997874;28;20310;-72
2023/07/06 04:47:29;;;;;;;8.18;5.50;;;21.10;99.90;;;;;;4976724;28;20223;-72
2023/07/06 04:50:22;;;;;;;10.30;5.40;;;21.20;99.90;;;;;;4983245;28;20229;-71
2023/07/06 04:53:16;;;;;;;8.60;5.32;;;21.30;99.90;;;;;;4978758;28;20224;-73
2023/07/06 04:56:06;;;;;;;7.30;5.30;;;21.30;99.90;;;;;;4980493;28;20230;-72
2023/07/06 04:58:57;;;;;;;9.50;5.47;;;21.30;99.90;;;;;;4981635;28;20580;-73
2023/07/06 05:01:46;;;;;;;13.50;5.72;;;21.40;99.90;;;;;;4987178;28;20218;-72
2023/07/06 05:04:40;;;;;;;12.63;5.65;;;21.30;99.90;;;;;;4983259;28;20246;-72
2023/07/06 05:07:29;;;;;;;7.85;5.85;;;21.30;99.90;;;;;;4977280;28;20278;-70
2023/07/06 05:10:19;;;;;;;7.93;5.38;;;21.30;99.90;;;;;;4977138;28;20482;-71
2023/07/06 05:13:08;;;;;;;11.13;5.55;;;21.40;99.90;;;;;;4975914;28;20758;-72
2023/07/06 05:15:58;;;;;;;9.23;5.53;;;21.30;99.90;;;;;;4977317;28;20218;-73
2023/07/06 05:18:48;;;;;;;8.88;5.88;;;21.40;99.90;;;;;;4969232;28;20231;-73
2023/07/06 05:21:38;;;;;;;7.65;5.30;;;21.40;99.90;;;;;;4977073;28;20243;-72
2023/07/06 05:24:28;;;;;;;8.10;5.95;;;21.40;99.90;;;;;;4971786;28;20231;-73
2023/07/06 05:27:17;;;;;;;10.32;5.95;;;21.40;99.90;;;;;;4983297;28;20788;-73
2023/07/06 05:30:08;;;;;;;13.27;6.20;;;21.40;99.90;;;;;;4979518;28;20305;-73
2023/07/06 05:32:58;;;;;;;11.00;5.95;;;21.50;99.90;;;;;;4982023;28;20260;-75
2023/07/06 05:35:48;;;;;;;10.02;5.80;;;21.60;99.90;;;;;;4972476;28;20223;-74
2023/07/06 05:38:40;;;;;;;10.20;6.20;;;21.70;99.90;;;;;;4984316;28;20790;-74
2023/07/06 05:41:29;;;;;;;9.70;5.85;;;21.60;99.90;;;;;;4976623;28;20227;-75
2023/07/06 05:44:18;;;;;;;9.18;5.90;;;21.80;99.90;;;;;;4982978;28;20234;-74
2023/07/06 05:47:08;;;;;;;14.85;6.60;;;21.90;99.90;;;;;;4969230;28;20282;-73
2023/07/06 05:49:59;;;;;;;12.40;6.00;;;22.10;99.90;;;;;;4980277;28;20246;-73
2023/07/06 05:52:48;;;;;;;13.63;6.32;;;22.20;99.90;;;;;;4973186;28;20219;-75
2023/07/06 05:55:37;;;;;;;10.32;6.05;;;22.70;99.90;;;;;;4981693;28;20290;-75
2023/07/06 05:58:26;;;;;;;15.10;6.43;;;22.80;99.90;;;;;;4973732;28;20611;-73
2023/07/06 06:01:16;;;;;;;9.77;6.22;;;23.00;99.90;;;;;;4986121;28;20227;-73
2023/07/06 06:04:05;;;;;;;10.00;6.68;;;23.10;99.90;;;;;;4974789;28;20896;-74
2023/07/06 06:06:57;;;;;;;9.25;6.80;;;22.70;99.90;;;;;;4972480;28;20246;-71
2023/07/06 06:09:46;;;;;;;12.70;6.80;;;22.40;99.90;;;;;;4973015;28;20728;-73
2023/07/06 06:12:35;;;;;;;7.78;6.22;;;22.40;99.90;;;;;;4970764;28;20229;-75
2023/07/06 06:15:25;;;;;;;11.00;6.60;;;22.40;99.90;;;;;;4980949;28;20267;-77
2023/07/06 06:18:14;;;;;;;9.48;6.65;;;22.60;99.90;;;;;;4976944;28;20224;-74
2023/07/06 06:21:03;;;;;;;12.07;7.03;;;22.90;99.90;;;;;;4975334;28;20219;-75
2023/07/06 06:23:54;;;;;;;11.70;6.50;;;22.80;99.90;;;;;;4980478;28;20222;-73
2023/07/06 06:26:43;;;;;;;11.15;6.72;;;22.60;99.90;;;;;;4969194;28;20602;-73
2023/07/06 06:29:32;;;;;;;8.98;6.45;;;22.60;99.90;;;;;;4967487;28;20356;-73
2023/07/06 06:32:22;;;;;;;9.27;7.05;;;22.60;99.90;;;;;;4980011;28;20898;-75
2023/07/06 06:35:24;;;;;;;9.15;7.18;;;22.60;99.90;;;;;;4972519;28;20371;-75
2023/07/06 06:38:14;;;;;;;11.75;7.55;;;22.80;99.90;;;;;;4977690;28;20227;-74
2023/07/06 06:41:07;;;;;;;9.80;7.80;;;23.40;99.90;;;;;;4982034;28;20230;-73
2023/07/06 06:43:56;;;;;;;13.32;7.65;;;23.20;99.90;;;;;;4976352;28;20310;-74
2023/07/06 06:46:47;;;;;;;9.60;6.78;;;24.50;99.90;;;;;;4970046;28;20231;-74
2023/07/06 06:49:36;;;;;;;11.30;7.05;;;24.50;99.90;;;;;;4970270;28;20231;-74
2023/07/06 06:52:25;;;;;;;13.13;7.82;;;24.20;99.90;;;;;;4982685;28;20234;-74
2023/07/06 06:55:15;;;;;;;8.65;7.05;;;24.30;99.90;;;;;;4968403;28;20246;-74
2023/07/06 06:58:05;;;;;;;9.57;6.90;;;24.30;99.90;;;;;;4976852;28;20230;-74
2023/07/06 07:00:58;;;;;;;10.75;6.95;;;24.20;99.90;;;;;;4979369;28;20228;-74
2023/07/06 07:03:48;;;;;;;9.68;7.07;;;24.50;99.90;;;;;;4982173;28;20691;-75
2023/07/06 07:06:38;;;;;;;8.55;6.35;;;24.30;99.90;;;;;;4976545;28;20319;-71
2023/07/06 07:09:27;;;;;;;11.00;6.75;;;24.10;99.90;;;;;;4981500;28;20238;-74
2023/07/06 07:12:16;;;;;;;10.25;6.82;;;23.80;99.90;;;;;;4978287;28;20262;-74
2023/07/06 07:15:10;;;;;;;10.88;6.35;;;23.60;99.90;;;;;;4987653;28;20273;-74
2023/07/06 07:17:59;;;;;;;6.63;5.85;;;23.60;99.90;;;;;;4976480;28;20311;-74
2023/07/06 07:20:51;;;;;;;9.63;5.85;;;23.60;99.90;;;;;;4973804;28;20293;-73
2023/07/06 07:23:42;;;;;;;10.13;6.18;;;23.60;99.90;;;;;;4988851;28;20789;-74
2023/07/06 07:26:30;;;;;;;10.45;5.90;;;23.80;99.90;;;;;;4968260;28;20244;-73
2023/07/06 07:29:20;;;;;;;12.02;5.68;;;24.30;99.90;;;;;;4980531;28;20309;-74
2023/07/06 07:32:10;;;;;;;7.35;5.43;;;24.50;99.90;;;;;;4990960;28;20219;-73
2023/07/06 07:35:03;;;;;;;12.75;5.63;;;24.50;99.90;;;;;;4966124;28;20245;-74
2023/07/06 07:37:51;;;;;;;7.45;4.80;;;25.60;99.90;;;;;;4976340;28;20223;-73
2023/07/06 07:40:40;;;;;;;7.40;5.13;;;26.00;99.90;;;;;;4965591;28;20253;-74
2023/07/06 07:43:32;;;;;;;7.75;4.75;;;26.10;99.90;;;;;;4963405;28;20347;-74
2023/07/06 07:46:22;;;;;;;8.27;4.90;;;25.90;99.90;;;;;;4969931;28;20235;-74
2023/07/06 07:49:13;;;;;;;6.60;4.40;;;25.60;99.90;;;;;;4979072;28;20271;-73
2023/07/06 07:52:02;;;;;;;7.72;3.85;;;26.00;99.90;;;;;;4975740;28;20211;-74
2023/07/06 07:54:53;;;;;;;7.53;4.85;;;26.30;99.90;;;;;;4972755;28;20269;-73
2023/07/06 07:57:42;;;;;;;8.38;5.20;;;26.40;99.90;;;;;;4986252;28;20225;-74
2023/07/06 08:00:31;;;;;;;9.00;4.65;;;26.90;99.90;;;;;;4980666;28;20362;-74
2023/07/06 08:03:21;;;;;;;4.72;4.05;;;26.80;99.90;;;;;;4974665;28;20227;-74
2023/07/06 08:06:14;;;;;;;8.68;4.20;;;27.60;99.90;;;;;;4976590;28;20244;-75
2023/07/06 08:09:06;;;;;;;7.13;4.60;;;28.30;99.90;;;;;;4976741;28;20757;-73
2023/07/06 08:11:55;;;;;;;5.90;4.35;;;28.80;98.90;;;;;;4980465;28;20738;-74
2023/07/06 08:14:43;;;;;;;6.85;4.53;;;29.30;99.90;;;;;;4981870;28;20341;-73
2023/07/06 08:17:32;;;;;;;11.00;4.45;;;28.40;97.40;;;;;;4981075;28;20882;-74
2023/07/06 08:20:21;;;;;;;7.53;4.40;;;28.40;97.30;;;;;;4978762;28;20245;-74
2023/07/06 08:23:32;;;;;;;8.18;4.28;;;28.60;98.50;;;;;;4964652;28;20223;-73
2023/07/06 08:26:21;;;;;;;9.52;3.67;;;29.50;97.70;;;;;;4987256;28;20234;-74
2023/07/06 08:29:11;;;;;;;7.22;3.28;;;30.10;94.30;;;;;;4973238;28;20219;-73
2023/07/06 08:32:03;;;;;;;4.10;3.65;;;30.20;94.00;;;;;;4982889;28;20227;-72
2023/07/06 08:34:53;;;;;;;6.50;3.70;;;30.10;92.10;;;;;;4972695;28;20726;-74
2023/07/06 08:37:43;;;;;;;5.07;3.58;;;30.10;93.20;;;;;;4986870;28;20217;-73
2023/07/06 08:40:35;;;;;;;4.70;3.80;;;30.20;90.30;;;;;;4969893;28;20249;-73
2023/07/06 08:43:26;;;;;;;6.53;3.92;;;30.40;91.50;;;;;;4978208;28;20229;-74
2023/07/06 08:46:15;;;;;;;6.38;3.60;;;30.40;92.20;;;;;;4972784;28;20239;-74
2023/07/06 08:49:09;;;;;;;6.32;3.95;;;30.20;91.70;;;;;;4976006;28;20757;-74
2023/07/06 08:52:02;;;;;;;13.07;4.40;;;29.70;91.40;;;;;;4981109;28;20242;-75
2023/07/06 08:54:52;;;;;;;4.15;3.67;;;28.80;90.90;;;;;;4996799;28;20300;-73
2023/07/06 08:57:45;;;;;;;6.88;3.78;;;29.40;92.60;;;;;;4973560;28;20561;-74
2023/07/06 09:00:35;;;;;;;11.00;4.05;;;30.10;93.30;;;;;;4973975;28;20225;-74
2023/07/06 09:03:24;;;;;;;9.00;3.45;;;30.80;91.90;;;;;;4986819;28;20219;-75
2023/07/06 09:06:18;;;;;;;4.82;4.05;;;30.80;91.20;;;;;;4980533;28;20234;-73
2023/07/06 09:09:09;;;;;;;7.78;4.25;;;31.00;90.50;;;;;;4996317;28;20240;-74
2023/07/06 09:12:00;;;;;;;7.93;3.28;;;31.50;88.70;;;;;;4980400;28;20301;-73
2023/07/06 09:14:57;;;;;;;5.93;3.63;;;31.40;84.10;;;;;;4976426;28;20569;-74
2023/07/06 09:17:47;;;;;;;4.28;3.40;;;30.60;86.30;;;;;;4993395;28;20361;-73
2023/07/06 09:20:36;;;;;;;7.03;3.42;;;30.40;86.00;;;;;;4976797;28;20715;-72
2023/07/06 09:23:25;;;;;;;7.20;3.22;;;30.10;87.60;;;;;;4984318;28;20253;-72
2023/07/06 09:26:22;;;;;;;8.85;3.38;;;29.20;83.10;;;;;;4976238;28;20586;-70
2023/07/06 09:29:25;;;;;;;9.88;3.22;;;29.30;89.90;;;;;;4988532;28;20226;-69
2023/07/06 09:32:19;;;;;;;6.28;3.28;;;29.30;83.30;;;;;;4982538;28;20218;-73
2023/07/06 09:35:20;;;;;;;5.72;3.42;;;29.50;81.90;;;;;;4975643;28;20582;-73
2023/07/06 09:38:12;;;;;;;7.05;3.22;;;30.30;84.50;;;;;;4994167;28;20225;-74
2023/07/06 09:41:02;;;;;;;6.05;3.30;;;30.00;83.10;;;;;;4984354;28;20222;-72
2023/07/06 09:43:57;;;;;;;7.85;3.33;;;29.60;85.50;;;;;;4988435;28;20231;-73
2023/07/06 09:46:46;;;;;;;8.05;3.95;;;29.30;87.10;;;;;;4985014;28;20246;-72
2023/07/06 09:49:45;;;;;;;6.50;3.58;;;29.40;87.90;;;;;;4967994;28;20478;-73
2023/07/06 09:52:41;;;;;;;7.80;3.65;;;29.60;84.70;;;;;;4986701;28;20234;-73
2023/07/06 09:55:30;;;;;;;8.85;3.50;;;29.30;84.80;;;;;;4987863;28;20231;-73
2023/07/06 09:58:24;;;;;;;4.70;3.20;;;29.30;84.00;;;;;;4978585;28;20267;-74
2023/07/06 10:01:16;;;;;;;6.75;3.95;;;29.00;85.00;;;;;;4983304;28;20253;-73
2023/07/06 10:04:38;;;;;;;6.85;3.70;;;29.20;85.80;;;;;;4979303;28;20353;-73
2023/07/06 10:07:39;;;;;;;7.25;4.00;;;29.40;81.70;;;;;;4984772;28;20575;-75
2023/07/06 10:10:42;;;;;;;6.90;3.50;;;30.10;83.50;;;;;;4975255;28;20229;-74
2023/07/06 10:13:38;;;;;;;9.25;3.30;;;30.40;81.30;;;;;;4986814;28;20229;-73
2023/07/06 10:16:38;;;;;;;3.95;3.20;;;30.60;80.70;;;;;;4977066;28;20230;-72
2023/07/06 10:19:32;;;;;;;8.10;3.30;;;31.40;80.20;;;;;;4966018;28;20230;-71
2023/07/06 10:22:35;;;;;;;5.72;3.30;;;32.00;74.70;;;;;;4992073;28;20608;-73
2023/07/06 10:25:33;;;;;;;5.07;2.88;;;31.80;79.30;;;;;;4986554;28;20245;-73
2023/07/06 10:28:27;;;;;;;6.47;3.30;;;31.80;76.70;;;;;;4978357;28;20249;-74
2023/07/06 10:31:21;;;;;;;4.88;2.95;;;32.00;75.80;;;;;;4974047;28;20227;-74
2023/07/06 10:34:16;;;;;;;5.85;3.08;;;32.40;76.30;;;;;;4968706;28;20254;-75
2023/07/06 10:37:06;;;;;;;7.13;3.40;;;33.20;74.10;;;;;;4978538;28;20847;-73
2023/07/06 10:40:19;;;;;;;5.50;2.83;;;35.70;71.90;;;;;;4980163;28;20230;-73
2023/07/06 10:43:21;;;;;;;5.22;3.08;;;36.10;68.00;;;;;;4977673;28;20306;-75
2023/07/06 10:46:30;;;;;;;7.15;3.00;;;35.10;67.30;;;;;;4976543;28;20214;-76
2023/07/06 10:49:21;;;;;;;7.32;3.03;;;33.60;66.80;;;;;;4983606;28;20580;-76
2023/07/06 10:52:15;;;;;;;4.22;3.00;;;32.70;66.70;;;;;;4987500;28;20313;-75
2023/07/06 10:55:11;;;;;;;3.40;2.92;;;32.70;67.90;;;;;;4987654;28;20223;-76
2023/07/06 10:58:32;;;;;;;7.05;3.00;;;33.10;68.90;;;;;;4961674;28;20309;-79
2023/07/06 11:01:22;;;;;;;4.65;2.80;;;34.00;67.20;;;;;;4973082;28;20241;-79
2023/07/06 11:04:52;;;;;;;4.75;2.80;;;35.20;64.00;;;;;;4990502;28;20231;-78
2023/07/06 11:07:45;;;;;;;4.68;2.47;;;36.40;62.60;;;;;;5002634;28;20878;-75
2023/07/06 11:10:46;;;;;;;4.57;2.60;;;37.20;59.30;;;;;;4978531;28;20290;-75
2023/07/06 11:13:50;;;;;;;7.35;3.15;;;36.90;53.20;;;;;;4971088;28;20234;-76
2023/07/06 11:16:48;;;;;;;4.72;2.70;;;36.20;56.80;;;;;;4980989;28;20233;-75
2023/07/06 11:19:41;;;;;;;4.43;2.55;;;34.10;52.40;;;;;;4972742;28;20361;-74
2023/07/06 11:22:31;;;;;;;6.65;2.75;;;34.80;54.80;;;;;;4966685;28;20221;-75
2023/07/06 11:25:21;;;;;;;4.72;3.00;;;34.40;53.90;;;;;;4980964;28;20223;-75
2023/07/06 11:28:14;;;;;;;8.05;2.72;;;33.80;55.70;;;;;;4986915;28;20234;-76
2023/07/06 11:31:17;;;;;;;6.85;3.17;;;32.90;58.00;;;;;;4984675;28;20280;-74
2023/07/06 11:34:18;;;;;;;5.97;2.78;;;32.90;60.30;;;;;;4963591;28;20230;-74
2023/07/06 11:37:19;;;;;;;6.05;2.95;;;32.10;61.60;;;;;;4976776;28;20872;-76
2023/07/06 11:40:23;;;;;;;5.80;2.47;;;32.90;61.80;;;;;;4973469;28;20253;-73
2023/07/06 11:43:31;;;;;;;4.57;2.70;;;32.60;63.20;;;;;;4974567;28;20222;-74
2023/07/06 11:46:34;;;;;;;6.28;2.67;;;32.50;60.70;;;;;;4977787;28;20258;-75
2023/07/06 11:49:35;;;;;;;4.28;2.50;;;31.10;63.20;;;;;;4973939;28;20290;-75
2023/07/06 11:52:29;;;;;;;6.25;2.53;;;30.20;65.20;;;;;;4975153;28;20226;-75
2023/07/06 11:55:29;;;;;;;8.50;2.88;;;29.60;68.10;;;;;;4975298;28;20241;-75
2023/07/06 11:58:31;;;;;;;3.42;2.85;;;29.30;68.10;;;;;;4985047;28;20400;-76
2023/07/06 12:01:32;;;;;;;4.57;2.70;;;29.50;66.30;;;;;;4975971;28;20240;-75
2023/07/06 12:04:21;;;;;;;4.65;2.63;;;29.90;66.10;;;;;;4981358;28;20739;-74
2023/07/06 12:07:29;;;;;;;3.10;2.58;;;30.20;65.20;;;;;;4986805;28;20722;-75
2023/07/06 12:10:18;;;;;;;5.35;3.10;;;30.20;63.70;;;;;;4983145;28;20367;-74
2023/07/06 12:13:18;;;;;;;3.42;2.78;;;29.50;64.40;;;;;;4977014;28;20303;-75
2023/07/06 12:16:18;;;;;;;6.43;3.00;;;29.10;65.40;;;;;;4972628;28;20576;-75
2023/07/06 12:19:11;;;;;;;5.72;2.78;;;28.60;67.40;;;;;;4973596;28;20218;-73
2023/07/06 12:22:02;;;;;;;5.25;2.75;;;28.30;68.70;;;;;;4978386;28;20337;-72
2023/07/06 12:24:53;;;;;;;9.27;2.88;;;28.10;69.40;;;;;;4970996;28;20741;-73
2023/07/06 12:27:45;;;;;;;3.60;2.70;;;28.00;69.80;;;;;;4977345;28;20219;-72
2023/07/06 12:30:35;;;;;;;4.90;2.75;;;28.60;68.40;;;;;;4968174;28;20726;-72
2023/07/06 12:33:25;;;;;;;5.70;3.13;;;28.50;66.80;;;;;;4991322;28;20241;-73
2023/07/06 12:36:15;;;;;;;11.80;2.55;;;28.30;69.80;;;;;;4974280;28;20219;-72
2023/07/06 12:39:05;;;;;;;8.55;2.75;;;28.30;71.80;;;;;;4976344;28;20230;-72
2023/07/06 12:41:55;;;;;;;6.88;2.83;;;28.10;70.90;;;;;;4966828;28;20321;-72
2023/07/06 12:44:44;;;;;;;3.85;2.63;;;27.80;70.20;;;;;;4969926;28;20233;-73
2023/07/06 12:47:37;;;;;;;7.72;2.75;;;27.70;70.20;;;;;;4983839;28;20234;-72
2023/07/06 12:50:35;;;;;;;7.18;2.90;;;27.90;67.60;;;;;;4975401;28;20223;-73
2023/07/06 12:53:29;;;;;;;5.53;2.72;;;27.90;68.20;;;;;;4992434;28;20230;-73
2023/07/06 12:56:20;;;;;;;7.07;2.85;;;27.70;66.40;;;;;;4975655;28;20416;-72
2023/07/06 12:59:20;;;;;;;4.10;2.80;;;27.50;67.20;;;;;;4977902;28;22225;-72
2023/07/06 13:02:19;;;;;;;4.72;2.70;;;27.60;67.00;;;;;;4993244;28;20225;-72
2023/07/06 13:05:16;;;;;;;5.55;2.90;;;27.60;66.10;;;;;;4982170;28;20800;-73
2023/07/06 13:08:09;;;;;;;4.72;2.55;;;27.60;68.00;;;;;;4979615;28;20233;-73
2023/07/06 13:11:02;;;;;;;4.95;3.30;;;27.70;65.30;;;;;;4975268;28;20222;-72
2023/07/06 13:13:56;;;;;;;5.85;2.92;;;27.70;65.80;;;;;;4980775;28;20325;-72
2023/07/06 13:16:52;;;;;;;5.90;2.47;;;28.00;65.60;;;;;;4981671;28;20230;-73
2023/07/06 13:19:41;;;;;;;10.75;2.88;;;28.10;65.80;;;;;;4987015;28;20729;-72
2023/07/06 13:22:30;;;;;;;8.60;3.20;;;28.10;66.00;;;;;;4976673;28;20285;-72
2023/07/06 13:25:24;;;;;;;7.72;3.15;;;28.10;65.40;;;;;;4992070;28;20223;-71
2023/07/06 13:28:14;;;;;;;7.72;2.97;;;28.10;65.80;;;;;;4981351;28;20242;-72
2023/07/06 13:31:07;;;;;;;8.57;2.88;;;28.10;68.10;;;;;;4974654;28;20238;-68
2023/07/06 13:33:56;;;;;;;8.05;3.05;;;28.10;67.50;;;;;;4981588;28;20245;-73
2023/07/06 13:36:46;;;;;;;9.35;3.10;;;28.20;66.10;;;;;;4992363;28;20269;-73
2023/07/06 13:39:34;;;;;;;7.30;3.05;;;28.30;68.50;;;;;;4981526;28;20342;-73
2023/07/06 13:42:25;;;;;;;4.97;3.20;;;28.30;69.50;;;;;;4980169;28;20242;-72
2023/07/06 13:45:17;;;;;;;11.25;3.03;;;28.20;68.50;;;;;;4992420;28;20236;-72
2023/07/06 13:48:06;;;;;;;6.45;3.03;;;28.00;66.90;;;;;;4989641;28;20265;-72
2023/07/06 13:50:55;;;;;;;9.23;3.42;;;27.60;66.70;;;;;;4988614;28;20303;-70
2023/07/06 13:53:49;;;;;;;10.20;3.00;;;27.50;67.70;;;;;;4978920;28;20237;-72
2023/07/06 13:56:38;;;;;;;9.55;3.65;;;27.40;67.50;;;;;;4966707;28;20226;-71
2023/07/06 13:59:28;;;;;;;5.25;3.00;;;27.50;67.80;;;;;;4991418;28;20791;-71
2023/07/06 14:02:21;;;;;;;6.28;3.20;;;27.40;68.20;;;;;;4981690;28;20231;-71
2023/07/06 14:05:13;;;;;;;7.72;3.65;;;27.10;68.30;;;;;;4972046;28;20227;-74
2023/07/06 14:08:02;;;;;;;7.30;2.95;;;27.30;69.00;;;;;;4973223;28;20294;-70
2023/07/06 14:10:53;;;;;;;5.40;3.10;;;27.50;70.30;;;;;;4974705;28;20218;-71
2023/07/06 14:13:43;;;;;;;5.75;3.08;;;27.70;68.20;;;;;;4977667;28;20305;-71
2023/07/06 14:16:37;;;;;;;7.10;3.10;;;27.60;67.10;;;;;;4977433;28;20250;-71
2023/07/06 14:19:26;;;;;;;5.63;3.20;;;27.50;66.80;;;;;;4971771;28;20223;-71
2023/07/06 14:22:15;;;;;;;7.10;2.72;;;27.30;66.60;;;;;;4967463;28;21110;-71
2023/07/06 14:25:16;;;;;;;9.00;3.00;;;27.30;69.80;;;;;;4970181;28;20778;-71
2023/07/06 14:28:08;;;;;;;8.30;2.95;;;27.00;65.10;;;;;;4980929;28;20214;-71
2023/07/06 14:31:02;;;;;;;8.68;3.00;;;26.90;66.40;;;;;;4973210;28;20214;-71
2023/07/06 14:33:53;;;;;;;7.32;3.55;;;26.90;65.50;;;;;;4975780;28;20227;-71
2023/07/06 14:36:42;;;;;;;6.40;3.00;;;27.00;68.40;;;;;;4967587;28;20227;-71
2023/07/06 14:39:32;;;;;;;7.75;3.15;;;27.00;67.20;;;;;;4972170;28;20254;-71
2023/07/06 14:42:21;;;;;;;7.15;3.17;;;26.90;65.00;;;;;;4974549;28;20262;-71
2023/07/06 14:45:11;;;;;;;5.90;2.97;;;26.90;66.50;;;;;;4980605;28;20219;-73
2023/07/06 14:48:00;;;;;;;6.22;2.90;;;26.80;67.50;;;;;;4984452;28;20314;-73
2023/07/06 14:50:51;;;;;;;6.38;3.10;;;26.90;66.60;;;;;;4982163;28;20279;-72
2023/07/06 14:53:40;;;;;;;6.55;3.13;;;26.90;67.10;;;;;;4976676;28;20409;-71
2023/07/06 14:56:29;;;;;;;7.20;3.35;;;26.80;65.20;;;;;;4971220;28;20997;-72